sensor_id;sensor_type;location;lat;lon;timestamp;pressure;altitude;pressure_sealevel;temperature;humidity
21730;BME280;11027;51.030;13.812;2024-03-29T00:01:27;98756.59;;;8.67;58.63
21730;BME280;11027;51.030;13.812;2024-03-29T00:03:52;98753.88;;;8.67;58.77
21730;BME280;11027;51.030;13.812;2024-03-29T00:06:18;98760.31;;;8.66;58.82
21730;BME280;11027;51.030;13.812;2024-03-29T00:08:43;98758.03;;;8.63;58.96
21730;BME280;11027;51.030;13.812;2024-03-29T00:11:08;98764.09;;;8.65;58.87
21730;BME280;11027;51.030;13.812;2024-03-29T00:13:34;98771.59;;;8.63;59.15
21730;BME280;11027;51.030;13.812;2024-03-29T00:16:00;98768.00;;;8.55;59.00
21730;BME280;11027;51.030;13.812;2024-03-29T00:18:25;98764.41;;;8.48;58.99
21730;BME280;11027;51.030;13.812;2024-03-29T00:20:50;98761.06;;;8.46;59.20
21730;BME280;11027;51.030;13.812;2024-03-29T00:23:15;98766.50;;;8.46;59.27
21730;BME280;11027;51.030;13.812;2024-03-29T00:25:41;98769.63;;;8.43;59.51
21730;BME280;11027;51.030;13.812;2024-03-29T00:28:06;98776.47;;;8.39;59.62
21730;BME280;11027;51.030;13.812;2024-03-29T00:30:32;98774.13;;;8.36;59.79
21730;BME280;11027;51.030;13.812;2024-03-29T00:32:57;98773.75;;;8.39;59.75
21730;BME280;11027;51.030;13.812;2024-03-29T00:35:22;98776.47;;;8.39;59.99
21730;BME280;11027;51.030;13.812;2024-03-29T00:37:48;98773.94;;;8.37;60.00
21730;BME280;11027;51.030;13.812;2024-03-29T00:40:14;98776.22;;;8.34;60.08
21730;BME280;11027;51.030;13.812;2024-03-29T00:42:39;98782.25;;;8.29;60.28
21730;BME280;11027;51.030;13.812;2024-03-29T00:45:05;98790.56;;;8.28;60.18
21730;BME280;11027;51.030;13.812;2024-03-29T00:47:30;98784.72;;;8.24;60.17
21730;BME280;11027;51.030;13.812;2024-03-29T00:49:55;98790.34;;;8.23;60.23
21730;BME280;11027;51.030;13.812;2024-03-29T00:52:20;98791.38;;;8.21;60.22
21730;BME280;11027;51.030;13.812;2024-03-29T00:54:46;98794.28;;;8.20;60.23
21730;BME280;11027;51.030;13.812;2024-03-29T00:57:11;98798.88;;;8.19;60.28
21730;BME280;11027;51.030;13.812;2024-03-29T00:59:38;98796.56;;;8.16;60.25
21730;BME280;11027;51.030;13.812;2024-03-29T01:02:03;98790.09;;;8.17;60.33
21730;BME280;11027;51.030;13.812;2024-03-29T01:04:29;98788.84;;;8.20;60.55
21730;BME280;11027;51.030;13.812;2024-03-29T01:06:54;98793.44;;;8.19;60.69
21730;BME280;11027;51.030;13.812;2024-03-29T01:09:21;98800.56;;;8.20;60.74
21730;BME280;11027;51.030;13.812;2024-03-29T01:11:46;98802.63;;;8.18;60.87
21730;BME280;11027;51.030;13.812;2024-03-29T01:14:11;98810.56;;;8.20;60.77
21730;BME280;11027;51.030;13.812;2024-03-29T01:16:36;98823.28;;;8.19;60.58
21730;BME280;11027;51.030;13.812;2024-03-29T01:19:02;98825.34;;;8.17;60.90
21730;BME280;11027;51.030;13.812;2024-03-29T01:21:28;98818.28;;;8.16;61.02
21730;BME280;11027;51.030;13.812;2024-03-29T01:23:53;98826.97;;;8.12;61.03
21730;BME280;11027;51.030;13.812;2024-03-29T01:26:18;98816.34;;;8.10;61.03
21730;BME280;11027;51.030;13.812;2024-03-29T01:28:44;98832.00;;;8.08;61.17
21730;BME280;11027;51.030;13.812;2024-03-29T01:31:09;98828.63;;;8.06;61.22
21730;BME280;11027;51.030;13.812;2024-03-29T01:33:35;98839.47;;;8.06;61.12
21730;BME280;11027;51.030;13.812;2024-03-29T01:36:06;98836.34;;;8.09;61.04
21730;BME280;11027;51.030;13.812;2024-03-29T01:38:31;98841.78;;;8.09;61.02
21730;BME280;11027;51.030;13.812;2024-03-29T01:40:57;98834.69;;;8.08;61.17
21730;BME280;11027;51.030;13.812;2024-03-29T01:43:22;98824.69;;;8.09;61.09
21730;BME280;11027;51.030;13.812;2024-03-29T01:45:49;98829.28;;;8.08;60.99
21730;BME280;11027;51.030;13.812;2024-03-29T01:48:17;98823.84;;;8.08;60.91
21730;BME280;11027;51.030;13.812;2024-03-29T01:50:43;98812.13;;;8.08;61.05
21730;BME280;11027;51.030;13.812;2024-03-29T01:53:10;98822.16;;;8.07;61.04
21730;BME280;11027;51.030;13.812;2024-03-29T01:55:36;98816.34;;;8.10;60.67
21730;BME280;11027;51.030;13.812;2024-03-29T01:58:02;98814.47;;;8.11;60.69
21730;BME280;11027;51.030;13.812;2024-03-29T02:00:27;98806.78;;;8.14;60.67
21730;BME280;11027;51.030;13.812;2024-03-29T02:02:53;98800.75;;;8.19;60.36
21730;BME280;11027;51.030;13.812;2024-03-29T02:05:19;98806.00;;;8.20;60.29
21730;BME280;11027;51.030;13.812;2024-03-29T02:07:45;98800.56;;;8.20;60.15
21730;BME280;11027;51.030;13.812;2024-03-29T02:10:13;98813.06;;;8.21;60.45
21730;BME280;11027;51.030;13.812;2024-03-29T02:12:39;98813.50;;;8.18;60.34
21730;BME280;11027;51.030;13.812;2024-03-29T02:15:04;98819.28;;;8.15;60.24
21730;BME280;11027;51.030;13.812;2024-03-29T02:17:31;98819.28;;;8.15;60.53
21730;BME280;11027;51.030;13.812;2024-03-29T02:19:56;98811.34;;;8.14;60.67
21730;BME280;11027;51.030;13.812;2024-03-29T02:22:24;98801.28;;;8.08;60.88
21730;BME280;11027;51.030;13.812;2024-03-29T02:24:51;98802.53;;;8.05;61.11
21730;BME280;11027;51.030;13.812;2024-03-29T02:27:16;98801.25;;;8.01;61.10
21730;BME280;11027;51.030;13.812;2024-03-29T02:29:41;98801.84;;;7.96;61.34
21730;BME280;11027;51.030;13.812;2024-03-29T02:32:07;98795.78;;;7.94;61.44
21730;BME280;11027;51.030;13.812;2024-03-29T02:34:32;98795.34;;;7.91;61.26
21730;BME280;11027;51.030;13.812;2024-03-29T02:36:57;98787.38;;;7.89;61.42
21730;BME280;11027;51.030;13.812;2024-03-29T02:39:24;98808.84;;;7.84;61.39
21730;BME280;11027;51.030;13.812;2024-03-29T02:41:49;98809.41;;;7.79;61.65
21730;BME280;11027;51.030;13.812;2024-03-29T02:44:14;98798.97;;;7.76;61.65
21730;BME280;11027;51.030;13.812;2024-03-29T02:46:41;98806.84;;;7.71;61.74
21730;BME280;11027;51.030;13.812;2024-03-29T02:49:07;98824.81;;;7.72;61.83
21730;BME280;11027;51.030;13.812;2024-03-29T02:51:32;98812.69;;;7.68;62.12
21730;BME280;11027;51.030;13.812;2024-03-29T02:53:57;98804.09;;;7.65;62.31
21730;BME280;11027;51.030;13.812;2024-03-29T02:56:22;98817.81;;;7.63;62.22
21730;BME280;11027;51.030;13.812;2024-03-29T02:58:48;98816.81;;;7.64;62.39
21730;BME280;11027;51.030;13.812;2024-03-29T03:01:14;98821.41;;;7.64;62.27
21730;BME280;11027;51.030;13.812;2024-03-29T03:03:39;98807.63;;;7.65;62.17
21730;BME280;11027;51.030;13.812;2024-03-29T03:06:04;98812.22;;;7.65;62.06
21730;BME280;11027;51.030;13.812;2024-03-29T03:08:30;98812.03;;;7.66;62.32
21730;BME280;11027;51.030;13.812;2024-03-29T03:11:13;98822.47;;;7.69;62.29
21730;BME280;11027;51.030;13.812;2024-03-29T03:13:39;98827.50;;;7.72;62.34
21730;BME280;11027;51.030;13.812;2024-03-29T03:16:04;98827.31;;;7.74;62.33
21730;BME280;11027;51.030;13.812;2024-03-29T03:18:30;98824.81;;;7.72;62.57
21730;BME280;11027;51.030;13.812;2024-03-29T03:20:56;98829.81;;;7.75;62.41
21730;BME280;11027;51.030;13.812;2024-03-29T03:23:23;98833.41;;;7.76;62.59
21730;BME280;11027;51.030;13.812;2024-03-29T03:25:59;98839.00;;;7.74;62.62
21730;BME280;11027;51.030;13.812;2024-03-29T03:28:24;98837.94;;;7.75;62.52
21730;BME280;11027;51.030;13.812;2024-03-29T03:30:51;98833.41;;;7.76;62.60
21730;BME280;11027;51.030;13.812;2024-03-29T03:33:17;98844.00;;;7.77;62.48
21730;BME280;11027;51.030;13.812;2024-03-29T03:35:43;98828.63;;;7.78;62.55
21730;BME280;11027;51.030;13.812;2024-03-29T03:38:08;98831.50;;;7.76;62.50
21730;BME280;11027;51.030;13.812;2024-03-29T03:40:34;98824.41;;;7.75;62.50
21730;BME280;11027;51.030;13.812;2024-03-29T03:43:01;98818.97;;;7.75;62.61
21730;BME280;11027;51.030;13.812;2024-03-29T03:45:26;98807.13;;;7.76;62.63
21730;BME280;11027;51.030;13.812;2024-03-29T03:47:51;98798.97;;;7.76;62.66
21730;BME280;11027;51.030;13.812;2024-03-29T03:50:16;98800.84;;;7.76;62.55
21730;BME280;11027;51.030;13.812;2024-03-29T03:52:42;98811.91;;;7.74;62.37
21730;BME280;11027;51.030;13.812;2024-03-29T03:55:07;98827.97;;;7.76;62.42
21730;BME280;11027;51.030;13.812;2024-03-29T03:57:32;98833.16;;;7.77;62.33
21730;BME280;11027;51.030;13.812;2024-03-29T03:59:59;98822.97;;;7.79;62.38
21730;BME280;11027;51.030;13.812;2024-03-29T04:02:24;98816.53;;;7.80;62.37
21730;BME280;11027;51.030;13.812;2024-03-29T04:04:49;98812.78;;;7.81;62.22
21730;BME280;11027;51.030;13.812;2024-03-29T04:07:15;98814.47;;;7.82;62.22
21730;BME280;11027;51.030;13.812;2024-03-29T04:09:40;98815.47;;;7.81;62.30
21730;BME280;11027;51.030;13.812;2024-03-29T04:12:05;98811.09;;;7.80;62.25
21730;BME280;11027;51.030;13.812;2024-03-29T04:14:31;98799.63;;;7.78;62.16
21730;BME280;11027;51.030;13.812;2024-03-29T04:16:56;98809.41;;;7.79;62.04
21730;BME280;11027;51.030;13.812;2024-03-29T04:19:21;98810.28;;;7.80;62.13
21730;BME280;11027;51.030;13.812;2024-03-29T04:21:46;98812.78;;;7.81;62.12
21730;BME280;11027;51.030;13.812;2024-03-29T04:24:12;98805.91;;;7.86;62.06
21730;BME280;11027;51.030;13.812;2024-03-29T04:26:37;98807.41;;;7.88;62.01
21730;BME280;11027;51.030;13.812;2024-03-29T04:29:03;98819.75;;;7.91;61.91
21730;BME280;11027;51.030;13.812;2024-03-29T04:31:29;98807.88;;;7.92;61.87
21730;BME280;11027;51.030;13.812;2024-03-29T04:33:54;98814.97;;;7.93;61.80
21730;BME280;11027;51.030;13.812;2024-03-29T04:36:19;98816.66;;;7.94;61.97
21730;BME280;11027;51.030;13.812;2024-03-29T04:38:45;98809.53;;;7.93;61.66
21730;BME280;11027;51.030;13.812;2024-03-29T04:41:10;98815.38;;;7.90;61.65
21730;BME280;11027;51.030;13.812;2024-03-29T04:43:35;98804.06;;;7.86;62.02
21730;BME280;11027;51.030;13.812;2024-03-29T04:46:13;98799.84;;;7.84;62.08
21730;BME280;11027;51.030;13.812;2024-03-29T04:48:40;98790.69;;;7.85;61.98
21730;BME280;11027;51.030;13.812;2024-03-29T04:51:07;98792.38;;;7.86;62.01
21730;BME280;11027;51.030;13.812;2024-03-29T04:53:32;98792.38;;;7.86;62.30
21730;BME280;11027;51.030;13.812;2024-03-29T04:55:58;98783.59;;;7.84;62.21
21730;BME280;11027;51.030;13.812;2024-03-29T04:58:27;98785.28;;;7.85;62.25
21730;BME280;11027;51.030;13.812;2024-03-29T05:00:53;98802.84;;;7.89;62.28
21730;BME280;11027;51.030;13.812;2024-03-29T05:03:19;98798.06;;;7.91;62.28
21730;BME280;11027;51.030;13.812;2024-03-29T05:05:45;98807.47;;;7.95;62.19
21730;BME280;11027;51.030;13.812;2024-03-29T05:08:10;98803.31;;;7.99;62.37
21730;BME280;11027;51.030;13.812;2024-03-29T05:10:36;98801.25;;;8.01;62.40
21730;BME280;11027;51.030;13.812;2024-03-29T05:13:01;98792.31;;;8.07;62.36
21730;BME280;11027;51.030;13.812;2024-03-29T05:15:27;98787.34;;;8.11;62.29
21730;BME280;11027;51.030;13.812;2024-03-29T05:17:52;98788.22;;;8.18;62.13
21730;BME280;11027;51.030;13.812;2024-03-29T05:20:18;98792.00;;;8.24;62.19
21730;BME280;11027;51.030;13.812;2024-03-29T05:22:43;98806.84;;;8.28;62.16
21730;BME280;11027;51.030;13.812;2024-03-29T05:25:08;98802.72;;;8.32;61.97
21730;BME280;11027;51.030;13.812;2024-03-29T05:27:34;98799.41;;;8.36;61.85
21730;BME280;11027;51.030;13.812;2024-03-29T05:29:59;98806.97;;;8.41;61.74
21730;BME280;11027;51.030;13.812;2024-03-29T05:32:24;98815.75;;;8.43;61.92
21730;BME280;11027;51.030;13.812;2024-03-29T05:34:50;98815.34;;;8.46;61.77
21730;BME280;11027;51.030;13.812;2024-03-29T05:37:15;98811.59;;;8.47;61.85
21730;BME280;11027;51.030;13.812;2024-03-29T05:39:42;98802.41;;;8.48;61.92
21730;BME280;11027;51.030;13.812;2024-03-29T05:42:07;98789.47;;;8.50;61.80
21730;BME280;11027;51.030;13.812;2024-03-29T05:44:35;98792.81;;;8.52;61.79
21730;BME280;11027;51.030;13.812;2024-03-29T05:47:00;98796.84;;;8.56;61.75
21730;BME280;11027;51.030;13.812;2024-03-29T05:49:26;98807.28;;;8.59;61.52
21730;BME280;11027;51.030;13.812;2024-03-29T05:51:51;98816.06;;;8.61;61.54
21730;BME280;11027;51.030;13.812;2024-03-29T05:54:17;98818.41;;;8.65;61.44
21730;BME280;11027;51.030;13.812;2024-03-29T05:56:42;98828.84;;;8.68;61.38
21730;BME280;11027;51.030;13.812;2024-03-29T05:59:07;98833.25;;;8.69;61.19
21730;BME280;11027;51.030;13.812;2024-03-29T06:01:33;98824.69;;;8.72;61.25
21730;BME280;11027;51.030;13.812;2024-03-29T06:03:58;98827.38;;;8.72;61.12
21730;BME280;11027;51.030;13.812;2024-03-29T06:06:29;98835.53;;;8.72;61.19
21730;BME280;11027;51.030;13.812;2024-03-29T06:08:54;98821.75;;;8.73;61.04
21730;BME280;11027;51.030;13.812;2024-03-29T06:11:20;98824.28;;;8.75;60.92
21730;BME280;11027;51.030;13.812;2024-03-29T06:13:45;98822.63;;;8.80;60.96
21730;BME280;11027;51.030;13.812;2024-03-29T06:16:25;98828.50;;;8.84;61.12
21730;BME280;11027;51.030;13.812;2024-03-29T06:19:10;98824.34;;;8.88;60.88
21730;BME280;11027;51.030;13.812;2024-03-29T06:21:35;98826.47;;;8.93;60.69
21730;BME280;11027;51.030;13.812;2024-03-29T06:24:08;98836.50;;;8.99;60.73
21730;BME280;11027;51.030;13.812;2024-03-29T06:26:34;98841.31;;;9.04;60.69
21730;BME280;11027;51.030;13.812;2024-03-29T06:29:02;98845.31;;;9.08;60.44
21730;BME280;11027;51.030;13.812;2024-03-29T06:31:27;98836.09;;;9.09;60.42
21730;BME280;11027;51.030;13.812;2024-03-29T06:33:53;98841.97;;;9.12;60.29
21730;BME280;11027;51.030;13.812;2024-03-29T06:36:19;98840.72;;;9.15;60.17
21730;BME280;11027;51.030;13.812;2024-03-29T06:38:44;98854.13;;;9.16;60.09
21730;BME280;11027;51.030;13.812;2024-03-29T06:41:09;98855.59;;;9.19;59.91
21730;BME280;11027;51.030;13.812;2024-03-29T06:43:34;98860.81;;;9.20;59.88
21730;BME280;11027;51.030;13.812;2024-03-29T06:46:00;98863.78;;;9.26;59.88
21730;BME280;11027;51.030;13.812;2024-03-29T06:48:27;98860.63;;;9.29;59.77
21730;BME280;11027;51.030;13.812;2024-03-29T06:50:53;98868.84;;;9.35;59.55
21730;BME280;11027;51.030;13.812;2024-03-29T06:53:18;98862.13;;;9.38;59.42
21730;BME280;11027;51.030;13.812;2024-03-29T06:55:44;98859.63;;;9.43;59.48
21730;BME280;11027;51.030;13.812;2024-03-29T06:58:10;98870.53;;;9.50;59.35
21730;BME280;11027;51.030;13.812;2024-03-29T07:00:35;98862.81;;;9.53;59.08
21730;BME280;11027;51.030;13.812;2024-03-29T07:03:00;98862.19;;;9.58;59.27
21730;BME280;11027;51.030;13.812;2024-03-29T07:05:26;98853.59;;;9.61;59.06
21730;BME280;11027;51.030;13.812;2024-03-29T07:07:51;98854.03;;;9.65;58.95
21730;BME280;11027;51.030;13.812;2024-03-29T07:10:16;98855.50;;;9.67;58.87
21730;BME280;11027;51.030;13.812;2024-03-29T07:12:41;98865.16;;;9.70;58.41
21730;BME280;11027;51.030;13.812;2024-03-29T07:15:07;98867.63;;;9.71;57.97
21730;BME280;11027;51.030;13.812;2024-03-29T07:17:32;98860.09;;;9.73;57.36
21730;BME280;11027;51.030;13.812;2024-03-29T07:19:58;98867.03;;;9.76;56.81
21730;BME280;11027;51.030;13.812;2024-03-29T07:22:23;98882.94;;;9.79;56.67
21730;BME280;11027;51.030;13.812;2024-03-29T07:24:48;98870.59;;;9.83;56.43
21730;BME280;11027;51.030;13.812;2024-03-29T07:27:14;98874.38;;;9.89;56.32
21730;BME280;11027;51.030;13.812;2024-03-29T07:29:42;98870.19;;;9.93;56.27
21730;BME280;11027;51.030;13.812;2024-03-29T07:32:09;98873.13;;;9.98;56.28
21730;BME280;11027;51.030;13.812;2024-03-29T07:34:34;98873.94;;;10.05;55.99
21730;BME280;11027;51.030;13.812;2024-03-29T07:36:59;98876.91;;;10.10;55.87
21730;BME280;11027;51.030;13.812;2024-03-29T07:39:24;98867.03;;;10.16;55.70
21730;BME280;11027;51.030;13.812;2024-03-29T07:41:53;98874.59;;;10.20;55.31
21730;BME280;11027;51.030;13.812;2024-03-29T07:44:18;98863.50;;;10.29;55.27
21730;BME280;11027;51.030;13.812;2024-03-29T07:46:43;98861.00;;;10.34;54.92
21730;BME280;11027;51.030;13.812;2024-03-29T07:49:11;98852.41;;;10.37;54.76
21730;BME280;11027;51.030;13.812;2024-03-29T07:51:36;98859.09;;;10.41;54.42
21730;BME280;11027;51.030;13.812;2024-03-29T07:54:02;98849.69;;;10.44;53.55
21730;BME280;11027;51.030;13.812;2024-03-29T07:56:27;98845.91;;;10.51;53.66
21730;BME280;11027;51.030;13.812;2024-03-29T07:58:53;98880.03;;;10.60;53.67
21730;BME280;11027;51.030;13.812;2024-03-29T08:01:19;98871.84;;;10.67;53.30
21730;BME280;11027;51.030;13.812;2024-03-29T08:03:45;98893.63;;;10.74;52.72
21730;BME280;11027;51.030;13.812;2024-03-29T08:06:10;98900.31;;;10.78;52.26
21730;BME280;11027;51.030;13.812;2024-03-29T08:08:35;98875.16;;;10.89;52.46
21730;BME280;11027;51.030;13.812;2024-03-29T08:11:01;98871.13;;;11.05;52.31
21730;BME280;11027;51.030;13.812;2024-03-29T08:13:26;98884.47;;;11.20;52.14
21730;BME280;11027;51.030;13.812;2024-03-29T08:16:01;98872.91;;;11.31;51.69
21730;BME280;11027;51.030;13.812;2024-03-29T08:18:28;98900.94;;;11.38;51.17
21730;BME280;11027;51.030;13.812;2024-03-29T08:20:53;98907.69;;;11.36;50.38
21730;BME280;11027;51.030;13.812;2024-03-29T08:23:22;98916.03;;;11.41;49.91
21730;BME280;11027;51.030;13.812;2024-03-29T08:25:48;98923.59;;;11.46;50.22
21730;BME280;11027;51.030;13.812;2024-03-29T08:28:14;98931.31;;;11.49;50.41
21730;BME280;11027;51.030;13.812;2024-03-29T08:30:40;98925.25;;;11.47;50.77
21730;BME280;11027;51.030;13.812;2024-03-29T08:33:05;98916.44;;;11.45;50.73
21730;BME280;11027;51.030;13.812;2024-03-29T08:35:32;98934.09;;;11.42;50.69
21730;BME280;11027;51.030;13.812;2024-03-29T08:37:58;98935.97;;;11.41;50.62
21730;BME280;11027;51.030;13.812;2024-03-29T08:40:24;98943.28;;;11.41;50.43
21730;BME280;11027;51.030;13.812;2024-03-29T08:42:50;98954.19;;;11.41;50.56
21730;BME280;11027;51.030;13.812;2024-03-29T08:45:16;98947.91;;;11.40;50.39
21730;BME280;11027;51.030;13.812;2024-03-29T08:47:41;98941.59;;;11.47;50.62
21730;BME280;11027;51.030;13.812;2024-03-29T08:50:06;98943.66;;;11.58;50.76
21730;BME280;11027;51.030;13.812;2024-03-29T08:52:32;98916.75;;;11.68;50.87
21730;BME280;11027;51.030;13.812;2024-03-29T08:54:57;98928.03;;;11.78;50.59
21730;BME280;11027;51.030;13.812;2024-03-29T08:57:22;98913.72;;;11.90;50.71
21730;BME280;11027;51.030;13.812;2024-03-29T08:59:47;98903.16;;;12.00;49.38
21730;BME280;11027;51.030;13.812;2024-03-29T09:02:13;98899.44;;;12.19;49.29
21730;BME280;11027;51.030;13.812;2024-03-29T09:04:38;98890.25;;;12.39;48.67
21730;BME280;11027;51.030;13.812;2024-03-29T09:07:03;98873.00;;;12.64;47.75
21730;BME280;11027;51.030;13.812;2024-03-29T09:09:32;98870.22;;;12.89;47.96
21730;BME280;11027;51.030;13.812;2024-03-29T09:11:57;98885.31;;;13.10;48.46
21730;BME280;11027;51.030;13.812;2024-03-29T09:14:23;98873.53;;;13.28;48.63
21730;BME280;11027;51.030;13.812;2024-03-29T09:16:49;98878.19;;;13.46;48.43
21730;BME280;11027;51.030;13.812;2024-03-29T09:19:14;98857.28;;;13.63;47.98
21730;BME280;11027;51.030;13.812;2024-03-29T09:21:40;98839.88;;;13.76;47.26
21730;BME280;11027;51.030;13.812;2024-03-29T09:24:05;98848.56;;;13.85;46.98
21730;BME280;11027;51.030;13.812;2024-03-29T09:26:31;98851.72;;;14.00;46.92
21730;BME280;11027;51.030;13.812;2024-03-29T09:28:57;98872.94;;;14.16;45.82
21730;BME280;11027;51.030;13.812;2024-03-29T09:31:22;98852.47;;;14.31;44.98
21730;BME280;11027;51.030;13.812;2024-03-29T09:33:47;98844.25;;;14.43;44.32
21730;BME280;11027;51.030;13.812;2024-03-29T09:36:19;98843.31;;;14.49;43.67
21730;BME280;11027;51.030;13.812;2024-03-29T09:38:44;98841.53;;;14.54;43.06
21730;BME280;11027;51.030;13.812;2024-03-29T09:41:19;98833.44;;;14.59;42.52
21730;BME280;11027;51.030;13.812;2024-03-29T09:43:46;98806.63;;;14.62;41.84
21730;BME280;11027;51.030;13.812;2024-03-29T09:46:12;98801.25;;;14.67;41.24
21730;BME280;11027;51.030;13.812;2024-03-29T09:48:39;98792.16;;;14.78;41.35
21730;BME280;11027;51.030;13.812;2024-03-29T09:51:06;98797.19;;;14.81;40.53
21730;BME280;11027;51.030;13.812;2024-03-29T09:53:35;98776.44;;;14.85;40.71
21730;BME280;11027;51.030;13.812;2024-03-29T09:56:03;98768.28;;;14.90;40.37
21730;BME280;11027;51.030;13.812;2024-03-29T09:58:29;98770.44;;;14.88;39.59
21730;BME280;11027;51.030;13.812;2024-03-29T10:00:55;98768.09;;;14.80;38.70
21730;BME280;11027;51.030;13.812;2024-03-29T10:03:23;98771.22;;;14.72;38.92
21730;BME280;11027;51.030;13.812;2024-03-29T10:05:48;98760.97;;;14.55;38.08
21730;BME280;11027;51.030;13.812;2024-03-29T10:08:15;98762.41;;;14.46;38.53
21730;BME280;11027;51.030;13.812;2024-03-29T10:10:41;98766.69;;;14.42;38.87
21730;BME280;11027;51.030;13.812;2024-03-29T10:13:06;98776.00;;;14.41;39.17
21730;BME280;11027;51.030;13.812;2024-03-29T10:15:32;98772.66;;;14.39;38.95
21730;BME280;11027;51.030;13.812;2024-03-29T10:18:02;98756.69;;;14.36;38.99
21730;BME280;11027;51.030;13.812;2024-03-29T10:20:27;98766.81;;;14.35;39.37
21730;BME280;11027;51.030;13.812;2024-03-29T10:22:53;98767.66;;;14.36;39.43
21730;BME280;11027;51.030;13.812;2024-03-29T10:25:19;98765.03;;;14.41;39.24
21730;BME280;11027;51.030;13.812;2024-03-29T10:27:45;98750.16;;;14.49;39.64
21730;BME280;11027;51.030;13.812;2024-03-29T10:30:11;98744.19;;;14.64;39.28
21730;BME280;11027;51.030;13.812;2024-03-29T10:32:40;98738.53;;;14.82;39.70
21730;BME280;11027;51.030;13.812;2024-03-29T10:35:05;98739.06;;;14.96;39.04
21730;BME280;11027;51.030;13.812;2024-03-29T10:37:31;98736.50;;;15.18;39.34
21730;BME280;11027;51.030;13.812;2024-03-29T10:40:00;98736.63;;;15.40;39.23
21730;BME280;11027;51.030;13.812;2024-03-29T10:42:26;98708.78;;;15.65;39.35
21730;BME280;11027;51.030;13.812;2024-03-29T10:44:52;98709.75;;;15.88;39.05
21730;BME280;11027;51.030;13.812;2024-03-29T10:47:18;98701.81;;;16.08;38.74
21730;BME280;11027;51.030;13.812;2024-03-29T10:49:49;98698.69;;;16.22;38.64
21730;BME280;11027;51.030;13.812;2024-03-29T10:52:16;98701.41;;;16.38;38.31
21730;BME280;11027;51.030;13.812;2024-03-29T10:54:44;98705.09;;;16.49;38.75
21730;BME280;11027;51.030;13.812;2024-03-29T10:57:14;98698.66;;;16.60;38.21
21730;BME280;11027;51.030;13.812;2024-03-29T10:59:49;98704.66;;;16.57;38.11
21730;BME280;11027;51.030;13.812;2024-03-29T11:02:49;98698.25;;;16.52;37.86
21730;BME280;11027;51.030;13.812;2024-03-29T11:05:12;98702.88;;;16.46;38.07
21730;BME280;11027;51.030;13.812;2024-03-29T11:07:40;98697.38;;;16.46;38.33
21730;BME280;11027;51.030;13.812;2024-03-29T11:10:11;98699.03;;;16.47;38.41
21730;BME280;11027;51.030;13.812;2024-03-29T11:12:47;98700.72;;;16.48;38.85
21730;BME280;11027;51.030;13.812;2024-03-29T11:15:22;98704.41;;;16.37;38.13
21730;BME280;11027;51.030;13.812;2024-03-29T11:17:54;98717.41;;;16.25;38.56
21730;BME280;11027;51.030;13.812;2024-03-29T11:20:19;98710.44;;;16.17;38.54
21730;BME280;11027;51.030;13.812;2024-03-29T11:22:49;98716.13;;;16.10;38.93
21730;BME280;11027;51.030;13.812;2024-03-29T11:25:15;98720.94;;;16.03;38.11
21730;BME280;11027;51.030;13.812;2024-03-29T11:27:40;98720.94;;;16.03;38.69
21730;BME280;11027;51.030;13.812;2024-03-29T11:30:06;98706.97;;;16.05;38.73
21730;BME280;11027;51.030;13.812;2024-03-29T11:32:38;98703.63;;;16.03;38.36
21730;BME280;11027;51.030;13.812;2024-03-29T11:35:05;98707.78;;;16.05;38.46
21730;BME280;11027;51.030;13.812;2024-03-29T11:37:31;98714.38;;;16.04;38.17
21730;BME280;11027;51.030;13.812;2024-03-29T11:39:59;98721.47;;;16.00;38.34
21730;BME280;11027;51.030;13.812;2024-03-29T11:42:38;98728.03;;;15.99;38.36
21730;BME280;11027;51.030;13.812;2024-03-29T11:45:04;98732.44;;;16.00;38.33
21730;BME280;11027;51.030;13.812;2024-03-29T11:47:31;98735.50;;;16.04;38.47
21730;BME280;11027;51.030;13.812;2024-03-29T11:49:58;98738.75;;;16.00;38.21
21730;BME280;11027;51.030;13.812;2024-03-29T11:52:26;98736.59;;;16.03;38.42
21730;BME280;11027;51.030;13.812;2024-03-29T11:54:51;98734.09;;;16.01;38.66
21730;BME280;11027;51.030;13.812;2024-03-29T11:57:18;98723.53;;;15.93;38.74
21730;BME280;11027;51.030;13.812;2024-03-29T11:59:44;98722.94;;;15.91;38.42
21730;BME280;11027;51.030;13.812;2024-03-29T12:02:11;98717.97;;;15.88;38.77
21730;BME280;11027;51.030;13.812;2024-03-29T12:04:40;98725.13;;;15.89;38.83
21730;BME280;11027;51.030;13.812;2024-03-29T12:07:05;98712.31;;;15.94;38.67
21730;BME280;11027;51.030;13.812;2024-03-29T12:09:31;98715.19;;;16.05;38.86
21730;BME280;11027;51.030;13.812;2024-03-29T12:11:56;98721.41;;;16.17;39.04
21730;BME280;11027;51.030;13.812;2024-03-29T12:14:25;98710.25;;;16.24;38.99
21730;BME280;11027;51.030;13.812;2024-03-29T12:16:52;98726.81;;;16.29;39.16
21730;BME280;11027;51.030;13.812;2024-03-29T12:19:24;98721.91;;;16.31;39.13
21730;BME280;11027;51.030;13.812;2024-03-29T12:21:51;98725.81;;;16.35;39.09
21730;BME280;11027;51.030;13.812;2024-03-29T12:24:16;98733.03;;;16.41;39.25
21730;BME280;11027;51.030;13.812;2024-03-29T12:26:42;98727.88;;;16.45;39.42
21730;BME280;11027;51.030;13.812;2024-03-29T12:29:07;98732.53;;;16.44;39.29
21730;BME280;11027;51.030;13.812;2024-03-29T12:31:32;98727.53;;;16.41;39.44
21730;BME280;11027;51.030;13.812;2024-03-29T12:33:57;98733.53;;;16.38;39.22
21730;BME280;11027;51.030;13.812;2024-03-29T12:36:24;98737.38;;;16.37;39.53
21730;BME280;11027;51.030;13.812;2024-03-29T12:38:54;98729.72;;;16.39;39.27
21730;BME280;11027;51.030;13.812;2024-03-29T12:41:23;98727.63;;;16.46;39.16
21730;BME280;11027;51.030;13.812;2024-03-29T12:43:50;98732.94;;;16.53;39.14
21730;BME280;11027;51.030;13.812;2024-03-29T12:46:15;98727.19;;;16.54;38.92
21730;BME280;11027;51.030;13.812;2024-03-29T12:48:42;98725.50;;;16.53;39.00
21730;BME280;11027;51.030;13.812;2024-03-29T12:51:07;98722.75;;;16.53;38.82